sensor_id;sensor_type;location;lat;lon;timestamp;P1;durP1;ratioP1;P2;durP2;ratioP2
20890;SDS011;10605;52.968;8.844;2023-06-22T00:00:56;7.68;;;7.10;;
20890;SDS011;10605;52.968;8.844;2023-06-22T00:03:23;7.47;;;6.85;;
20890;SDS011;10605;52.968;8.844;2023-06-22T00:05:50;9.00;;;8.30;;
20890;SDS011;10605;52.968;8.844;2023-06-22T00:08:17;8.93;;;8.13;;
20890;SDS011;10605;52.968;8.844;2023-06-22T00:10:44;10.15;;;7.72;;
20890;SDS011;10605;52.968;8.844;2023-06-22T00:13:10;8.60;;;7.88;;
20890;SDS011;10605;52.968;8.844;2023-06-22T00:15:37;8.10;;;7.50;;
20890;SDS011;10605;52.968;8.844;2023-06-22T00:18:05;8.07;;;7.50;;
20890;SDS011;10605;52.968;8.844;2023-06-22T00:20:32;7.95;;;7.15;;
20890;SDS011;10605;52.968;8.844;2023-06-22T00:23:01;8.00;;;7.25;;
20890;SDS011;10605;52.968;8.844;2023-06-22T00:25:31;8.18;;;7.55;;
20890;SDS011;10605;52.968;8.844;2023-06-22T00:27:57;7.40;;;6.80;;
20890;SDS011;10605;52.968;8.844;2023-06-22T00:30:22;7.35;;;6.15;;
20890;SDS011;10605;52.968;8.844;2023-06-22T00:32:48;6.85;;;6.35;;
20890;SDS011;10605;52.968;8.844;2023-06-22T00:35:14;7.38;;;6.80;;
20890;SDS011;10605;52.968;8.844;2023-06-22T00:37:39;7.95;;;7.35;;
20890;SDS011;10605;52.968;8.844;2023-06-22T00:40:08;7.32;;;6.63;;
20890;SDS011;10605;52.968;8.844;2023-06-22T00:42:38;7.50;;;6.78;;
20890;SDS011;10605;52.968;8.844;2023-06-22T00:45:04;6.50;;;5.95;;
20890;SDS011;10605;52.968;8.844;2023-06-22T00:47:31;7.00;;;6.38;;
20890;SDS011;10605;52.968;8.844;2023-06-22T00:49:57;7.18;;;6.50;;
20890;SDS011;10605;52.968;8.844;2023-06-22T00:52:23;7.50;;;6.82;;
20890;SDS011;10605;52.968;8.844;2023-06-22T00:54:54;7.57;;;6.97;;
20890;SDS011;10605;52.968;8.844;2023-06-22T00:57:21;8.00;;;6.95;;
20890;SDS011;10605;52.968;8.844;2023-06-22T00:59:48;7.95;;;7.18;;
20890;SDS011;10605;52.968;8.844;2023-06-22T01:02:14;7.60;;;6.95;;
20890;SDS011;10605;52.968;8.844;2023-06-22T01:04:40;7.88;;;7.28;;
20890;SDS011;10605;52.968;8.844;2023-06-22T01:12:22;7.00;;;6.50;;
20890;SDS011;10605;52.968;8.844;2023-06-22T01:14:54;7.55;;;6.95;;
20890;SDS011;10605;52.968;8.844;2023-06-22T01:17:26;6.53;;;6.13;;
20890;SDS011;10605;52.968;8.844;2023-06-22T01:19:54;8.38;;;7.57;;
20890;SDS011;10605;52.968;8.844;2023-06-22T01:22:24;7.13;;;6.60;;
20890;SDS011;10605;52.968;8.844;2023-06-22T01:25:07;7.22;;;6.65;;
20890;SDS011;10605;52.968;8.844;2023-06-22T01:27:46;7.03;;;6.40;;
20890;SDS011;10605;52.968;8.844;2023-06-22T01:30:25;7.28;;;6.78;;
20890;SDS011;10605;52.968;8.844;2023-06-22T01:32:54;7.80;;;7.30;;
20890;SDS011;10605;52.968;8.844;2023-06-22T01:35:24;8.43;;;7.75;;
20890;SDS011;10605;52.968;8.844;2023-06-22T01:37:50;8.35;;;7.72;;
20890;SDS011;10605;52.968;8.844;2023-06-22T01:40:16;7.93;;;7.22;;
20890;SDS011;10605;52.968;8.844;2023-06-22T01:42:43;8.63;;;7.78;;
20890;SDS011;10605;52.968;8.844;2023-06-22T01:45:10;8.10;;;7.50;;
20890;SDS011;10605;52.968;8.844;2023-06-22T01:47:37;8.88;;;8.18;;
20890;SDS011;10605;52.968;8.844;2023-06-22T01:50:04;8.45;;;7.68;;
20890;SDS011;10605;52.968;8.844;2023-06-22T01:52:30;8.25;;;7.55;;
20890;SDS011;10605;52.968;8.844;2023-06-22T01:54:59;8.82;;;8.13;;
20890;SDS011;10605;52.968;8.844;2023-06-22T01:57:25;9.35;;;8.75;;
20890;SDS011;10605;52.968;8.844;2023-06-22T02:02:28;10.32;;;9.43;;
20890;SDS011;10605;52.968;8.844;2023-06-22T02:05:05;10.45;;;9.55;;
20890;SDS011;10605;52.968;8.844;2023-06-22T02:07:37;10.40;;;9.60;;
20890;SDS011;10605;52.968;8.844;2023-06-22T02:10:07;10.98;;;10.10;;
20890;SDS011;10605;52.968;8.844;2023-06-22T02:12:34;11.27;;;10.20;;
20890;SDS011;10605;52.968;8.844;2023-06-22T02:15:02;10.77;;;9.82;;
20890;SDS011;10605;52.968;8.844;2023-06-22T02:17:28;10.63;;;9.73;;
20890;SDS011;10605;52.968;8.844;2023-06-22T02:19:58;10.43;;;9.55;;
20890;SDS011;10605;52.968;8.844;2023-06-22T02:22:24;9.93;;;9.13;;
20890;SDS011;10605;52.968;8.844;2023-06-22T02:24:49;10.10;;;9.27;;
20890;SDS011;10605;52.968;8.844;2023-06-22T02:27:15;10.32;;;9.57;;
20890;SDS011;10605;52.968;8.844;2023-06-22T02:29:41;12.15;;;10.55;;
20890;SDS011;10605;52.968;8.844;2023-06-22T02:32:07;12.60;;;11.35;;
20890;SDS011;10605;52.968;8.844;2023-06-22T02:34:32;11.77;;;10.75;;
20890;SDS011;10605;52.968;8.844;2023-06-22T02:36:59;11.15;;;10.10;;
20890;SDS011;10605;52.968;8.844;2023-06-22T02:39:26;12.90;;;10.68;;
20890;SDS011;10605;52.968;8.844;2023-06-22T02:41:52;13.27;;;12.10;;
20890;SDS011;10605;52.968;8.844;2023-06-22T02:44:18;12.55;;;11.45;;
20890;SDS011;10605;52.968;8.844;2023-06-22T02:46:45;13.65;;;12.35;;
20890;SDS011;10605;52.968;8.844;2023-06-22T02:49:10;12.65;;;11.57;;
20890;SDS011;10605;52.968;8.844;2023-06-22T02:51:41;14.50;;;13.23;;
20890;SDS011;10605;52.968;8.844;2023-06-22T02:54:09;14.43;;;13.02;;
20890;SDS011;10605;52.968;8.844;2023-06-22T02:56:35;12.65;;;11.65;;
20890;SDS011;10605;52.968;8.844;2023-06-22T02:59:02;12.98;;;11.63;;
20890;SDS011;10605;52.968;8.844;2023-06-22T03:01:28;13.35;;;12.10;;
20890;SDS011;10605;52.968;8.844;2023-06-22T03:03:55;14.18;;;12.88;;
20890;SDS011;10605;52.968;8.844;2023-06-22T03:06:21;14.25;;;12.88;;
20890;SDS011;10605;52.968;8.844;2023-06-22T03:08:54;13.35;;;12.32;;
20890;SDS011;10605;52.968;8.844;2023-06-22T03:11:28;13.88;;;12.75;;
20890;SDS011;10605;52.968;8.844;2023-06-22T03:13:54;13.63;;;12.43;;
20890;SDS011;10605;52.968;8.844;2023-06-22T03:16:20;14.43;;;13.23;;
20890;SDS011;10605;52.968;8.844;2023-06-22T03:18:46;13.18;;;12.18;;
20890;SDS011;10605;52.968;8.844;2023-06-22T03:21:11;14.45;;;12.95;;
20890;SDS011;10605;52.968;8.844;2023-06-22T03:23:37;13.43;;;12.15;;
20890;SDS011;10605;52.968;8.844;2023-06-22T03:26:03;13.65;;;12.35;;
20890;SDS011;10605;52.968;8.844;2023-06-22T03:28:29;14.07;;;12.60;;
20890;SDS011;10605;52.968;8.844;2023-06-22T03:30:57;13.02;;;11.93;;
20890;SDS011;10605;52.968;8.844;2023-06-22T03:33:23;13.73;;;12.45;;
20890;SDS011;10605;52.968;8.844;2023-06-22T03:35:48;12.50;;;11.55;;
20890;SDS011;10605;52.968;8.844;2023-06-22T03:38:15;11.45;;;10.25;;
20890;SDS011;10605;52.968;8.844;2023-06-22T03:40:43;11.00;;;9.90;;
20890;SDS011;10605;52.968;8.844;2023-06-22T03:43:09;10.52;;;9.73;;
20890;SDS011;10605;52.968;8.844;2023-06-22T03:45:34;10.48;;;9.65;;
20890;SDS011;10605;52.968;8.844;2023-06-22T03:48:00;10.27;;;9.48;;
20890;SDS011;10605;52.968;8.844;2023-06-22T03:50:26;12.23;;;9.43;;
20890;SDS011;10605;52.968;8.844;2023-06-22T03:52:52;10.85;;;9.70;;
20890;SDS011;10605;52.968;8.844;2023-06-22T03:55:21;10.48;;;9.77;;
20890;SDS011;10605;52.968;8.844;2023-06-22T03:57:47;10.40;;;9.38;;
20890;SDS011;10605;52.968;8.844;2023-06-22T04:00:13;9.98;;;9.18;;
20890;SDS011;10605;52.968;8.844;2023-06-22T04:02:40;9.73;;;8.93;;
20890;SDS011;10605;52.968;8.844;2023-06-22T04:05:08;10.95;;;10.07;;
20890;SDS011;10605;52.968;8.844;2023-06-22T04:07:34;10.93;;;10.00;;
20890;SDS011;10605;52.968;8.844;2023-06-22T04:10:02;9.93;;;9.13;;
20890;SDS011;10605;52.968;8.844;2023-06-22T04:12:29;11.27;;;10.00;;
20890;SDS011;10605;52.968;8.844;2023-06-22T04:14:55;10.48;;;9.45;;
20890;SDS011;10605;52.968;8.844;2023-06-22T04:17:20;9.63;;;8.77;;
20890;SDS011;10605;52.968;8.844;2023-06-22T04:19:46;10.23;;;9.32;;
20890;SDS011;10605;52.968;8.844;2023-06-22T04:22:12;10.48;;;9.68;;
20890;SDS011;10605;52.968;8.844;2023-06-22T04:24:38;11.15;;;10.10;;
20890;SDS011;10605;52.968;8.844;2023-06-22T04:27:04;10.60;;;9.70;;
20890;SDS011;10605;52.968;8.844;2023-06-22T04:29:30;11.27;;;9.50;;
20890;SDS011;10605;52.968;8.844;2023-06-22T04:31:56;12.02;;;10.80;;
20890;SDS011;10605;52.968;8.844;2023-06-22T04:34:23;15.00;;;13.55;;
20890;SDS011;10605;52.968;8.844;2023-06-22T04:36:53;13.10;;;11.65;;
20890;SDS011;10605;52.968;8.844;2023-06-22T04:39:18;13.32;;;11.75;;
20890;SDS011;10605;52.968;8.844;2023-06-22T04:41:44;13.70;;;12.43;;
20890;SDS011;10605;52.968;8.844;2023-06-22T04:44:17;16.20;;;14.52;;
20890;SDS011;10605;52.968;8.844;2023-06-22T04:46:51;15.05;;;13.40;;
20890;SDS011;10605;52.968;8.844;2023-06-22T04:49:24;18.65;;;16.17;;
20890;SDS011;10605;52.968;8.844;2023-06-22T04:51:57;19.83;;;16.65;;
20890;SDS011;10605;52.968;8.844;2023-06-22T04:54:23;19.00;;;16.77;;
20890;SDS011;10605;52.968;8.844;2023-06-22T04:56:49;22.55;;;17.38;;
20890;SDS011;10605;52.968;8.844;2023-06-22T04:59:21;21.23;;;17.52;;
20890;SDS011;10605;52.968;8.844;2023-06-22T05:01:53;22.88;;;17.25;;
20890;SDS011;10605;52.968;8.844;2023-06-22T05:04:19;18.10;;;15.85;;
20890;SDS011;10605;52.968;8.844;2023-06-22T05:06:45;19.20;;;17.27;;
20890;SDS011;10605;52.968;8.844;2023-06-22T05:09:10;24.05;;;16.42;;
20890;SDS011;10605;52.968;8.844;2023-06-22T05:11:37;19.45;;;16.17;;
20890;SDS011;10605;52.968;8.844;2023-06-22T05:14:03;15.80;;;14.05;;
20890;SDS011;10605;52.968;8.844;2023-06-22T05:16:29;15.18;;;13.57;;
20890;SDS011;10605;52.968;8.844;2023-06-22T05:18:54;15.02;;;13.27;;
20890;SDS011;10605;52.968;8.844;2023-06-22T05:21:26;18.23;;;12.82;;
20890;SDS011;10605;52.968;8.844;2023-06-22T05:23:52;12.23;;;10.88;;
20890;SDS011;10605;52.968;8.844;2023-06-22T05:26:19;13.43;;;12.05;;
20890;SDS011;10605;52.968;8.844;2023-06-22T05:28:46;13.40;;;12.00;;
20890;SDS011;10605;52.968;8.844;2023-06-22T05:31:15;13.25;;;11.68;;
20890;SDS011;10605;52.968;8.844;2023-06-22T05:33:42;11.35;;;9.57;;
20890;SDS011;10605;52.968;8.844;2023-06-22T05:36:08;11.82;;;9.75;;
20890;SDS011;10605;52.968;8.844;2023-06-22T05:38:35;13.05;;;11.82;;
20890;SDS011;10605;52.968;8.844;2023-06-22T05:41:01;11.15;;;10.05;;
20890;SDS011;10605;52.968;8.844;2023-06-22T05:43:27;12.60;;;10.57;;
20890;SDS011;10605;52.968;8.844;2023-06-22T05:45:53;12.18;;;11.02;;
20890;SDS011;10605;52.968;8.844;2023-06-22T05:48:19;11.82;;;10.65;;
20890;SDS011;10605;52.968;8.844;2023-06-22T05:50:45;11.15;;;10.18;;
20890;SDS011;10605;52.968;8.844;2023-06-22T05:53:11;10.98;;;9.98;;
20890;SDS011;10605;52.968;8.844;2023-06-22T05:55:36;11.55;;;10.32;;
20890;SDS011;10605;52.968;8.844;2023-06-22T05:58:02;10.35;;;9.48;;
20890;SDS011;10605;52.968;8.844;2023-06-22T06:00:31;11.20;;;10.20;;
20890;SDS011;10605;52.968;8.844;2023-06-22T06:02:57;10.45;;;9.40;;
20890;SDS011;10605;52.968;8.844;2023-06-22T06:05:28;10.43;;;9.35;;
20890;SDS011;10605;52.968;8.844;2023-06-22T06:07:57;10.63;;;9.80;;
20890;SDS011;10605;52.968;8.844;2023-06-22T06:10:23;8.63;;;7.82;;
20890;SDS011;10605;52.968;8.844;2023-06-22T06:12:48;9.43;;;8.55;;
20890;SDS011;10605;52.968;8.844;2023-06-22T06:15:14;11.77;;;8.25;;
20890;SDS011;10605;52.968;8.844;2023-06-22T06:17:46;9.10;;;8.25;;
20890;SDS011;10605;52.968;8.844;2023-06-22T06:20:19;8.40;;;7.47;;
20890;SDS011;10605;52.968;8.844;2023-06-22T06:22:46;9.00;;;7.80;;
20890;SDS011;10605;52.968;8.844;2023-06-22T06:25:13;9.25;;;7.47;;
20890;SDS011;10605;52.968;8.844;2023-06-22T06:27:41;8.60;;;7.55;;
20890;SDS011;10605;52.968;8.844;2023-06-22T06:30:08;7.90;;;7.15;;
20890;SDS011;10605;52.968;8.844;2023-06-22T06:32:35;7.88;;;7.13;;
20890;SDS011;10605;52.968;8.844;2023-06-22T06:35:01;8.63;;;6.72;;
20890;SDS011;10605;52.968;8.844;2023-06-22T06:37:27;7.10;;;6.43;;
20890;SDS011;10605;52.968;8.844;2023-06-22T06:39:53;7.18;;;6.65;;
20890;SDS011;10605;52.968;8.844;2023-06-22T06:42:18;6.82;;;6.20;;
20890;SDS011;10605;52.968;8.844;2023-06-22T06:44:45;6.85;;;6.28;;
20890;SDS011;10605;52.968;8.844;2023-06-22T06:47:10;10.60;;;7.63;;
20890;SDS011;10605;52.968;8.844;2023-06-22T06:49:36;6.15;;;5.65;;
20890;SDS011;10605;52.968;8.844;2023-06-22T06:52:02;8.68;;;6.78;;
20890;SDS011;10605;52.968;8.844;2023-06-22T06:54:27;9.68;;;6.90;;
20890;SDS011;10605;52.968;8.844;2023-06-22T06:56:53;7.47;;;6.88;;
20890;SDS011;10605;52.968;8.844;2023-06-22T06:59:19;9.52;;;6.90;;
20890;SDS011;10605;52.968;8.844;2023-06-22T07:01:44;8.52;;;7.15;;
20890;SDS011;10605;52.968;8.844;2023-06-22T07:04:10;7.72;;;6.10;;
20890;SDS011;10605;52.968;8.844;2023-06-22T07:06:36;6.65;;;6.05;;
20890;SDS011;10605;52.968;8.844;2023-06-22T07:09:02;6.80;;;6.20;;
20890;SDS011;10605;52.968;8.844;2023-06-22T07:11:28;6.85;;;6.13;;
20890;SDS011;10605;52.968;8.844;2023-06-22T07:13:54;6.13;;;5.53;;
20890;SDS011;10605;52.968;8.844;2023-06-22T07:16:19;7.53;;;5.45;;
20890;SDS011;10605;52.968;8.844;2023-06-22T07:18:46;7.25;;;5.93;;
20890;SDS011;10605;52.968;8.844;2023-06-22T07:21:11;7.70;;;5.10;;
20890;SDS011;10605;52.968;8.844;2023-06-22T07:23:37;5.72;;;5.15;;
20890;SDS011;10605;52.968;8.844;2023-06-22T07:26:03;5.75;;;5.28;;
20890;SDS011;10605;52.968;8.844;2023-06-22T07:28:31;5.03;;;4.53;;
20890;SDS011;10605;52.968;8.844;2023-06-22T07:31:02;12.20;;;4.93;;
20890;SDS011;10605;52.968;8.844;2023-06-22T07:33:28;6.10;;;5.07;;
20890;SDS011;10605;52.968;8.844;2023-06-22T07:35:54;6.18;;;4.57;;
20890;SDS011;10605;52.968;8.844;2023-06-22T07:38:20;4.63;;;4.30;;
20890;SDS011;10605;52.968;8.844;2023-06-22T07:40:45;5.13;;;4.53;;
20890;SDS011;10605;52.968;8.844;2023-06-22T07:43:12;4.53;;;3.70;;
20890;SDS011;10605;52.968;8.844;2023-06-22T07:45:37;7.55;;;4.38;;
20890;SDS011;10605;52.968;8.844;2023-06-22T07:48:05;4.80;;;4.40;;
20890;SDS011;10605;52.968;8.844;2023-06-22T07:50:31;5.22;;;2.90;;
20890;SDS011;10605;52.968;8.844;2023-06-22T07:52:57;4.20;;;3.20;;
20890;SDS011;10605;52.968;8.844;2023-06-22T07:55:23;2.88;;;2.45;;
20890;SDS011;10605;52.968;8.844;2023-06-22T07:57:48;4.25;;;3.25;;
20890;SDS011;10605;52.968;8.844;2023-06-22T08:00:16;3.05;;;2.33;;
20890;SDS011;10605;52.968;8.844;2023-06-22T08:02:44;3.20;;;2.67;;
20890;SDS011;10605;52.968;8.844;2023-06-22T08:05:11;3.80;;;2.88;;
20890;SDS011;10605;52.968;8.844;2023-06-22T08:07:37;3.22;;;2.92;;
20890;SDS011;10605;52.968;8.844;2023-06-22T08:10:04;3.13;;;2.63;;
20890;SDS011;10605;52.968;8.844;2023-06-22T08:12:31;2.80;;;2.53;;
20890;SDS011;10605;52.968;8.844;2023-06-22T08:14:57;3.40;;;2.67;;
20890;SDS011;10605;52.968;8.844;2023-06-22T08:17:23;2.47;;;2.28;;
20890;SDS011;10605;52.968;8.844;2023-06-22T08:19:49;2.22;;;2.10;;
20890;SDS011;10605;52.968;8.844;2023-06-22T08:22:15;2.83;;;2.63;;
20890;SDS011;10605;52.968;8.844;2023-06-22T08:24:42;4.85;;;2.30;;
20890;SDS011;10605;52.968;8.844;2023-06-22T08:27:09;2.83;;;2.25;;
20890;SDS011;10605;52.968;8.844;2023-06-22T08:29:38;3.60;;;2.13;;
20890;SDS011;10605;52.968;8.844;2023-06-22T08:32:04;4.25;;;2.50;;
20890;SDS011;10605;52.968;8.844;2023-06-22T08:34:30;6.88;;;2.22;;
20890;SDS011;10605;52.968;8.844;2023-06-22T08:36:56;2.95;;;2.60;;
20890;SDS011;10605;52.968;8.844;2023-06-22T08:39:22;6.97;;;2.55;;
20890;SDS011;10605;52.968;8.844;2023-06-22T08:41:47;3.35;;;2.63;;
20890;SDS011;10605;52.968;8.844;2023-06-22T08:44:13;2.40;;;2.20;;
20890;SDS011;10605;52.968;8.844;2023-06-22T08:46:40;2.25;;;2.05;;
20890;SDS011;10605;52.968;8.844;2023-06-22T08:49:06;1.88;;;1.77;;
20890;SDS011;10605;52.968;8.844;2023-06-22T08:51:33;2.33;;;2.13;;
20890;SDS011;10605;52.968;8.844;2023-06-22T08:53:59;6.95;;;2.45;;
20890;SDS011;10605;52.968;8.844;2023-06-22T08:56:24;2.72;;;2.53;;
20890;SDS011;10605;52.968;8.844;2023-06-22T08:58:50;2.45;;;2.20;;
20890;SDS011;10605;52.968;8.844;2023-06-22T09:01:16;2.67;;;2.47;;
20890;SDS011;10605;52.968;8.844;2023-06-22T09:03:41;5.05;;;2.33;;
20890;SDS011;10605;52.968;8.844;2023-06-22T09:06:07;4.07;;;2.20;;
20890;SDS011;10605;52.968;8.844;2023-06-22T09:08:35;2.55;;;2.25;;
20890;SDS011;10605;52.968;8.844;2023-06-22T09:11:03;2.33;;;2.03;;
20890;SDS011;10605;52.968;8.844;2023-06-22T09:13:30;2.92;;;2.65;;
20890;SDS011;10605;52.968;8.844;2023-06-22T09:15:57;2.88;;;2.67;;
20890;SDS011;10605;52.968;8.844;2023-06-22T09:18:23;6.35;;;2.38;;
20890;SDS011;10605;52.968;8.844;2023-06-22T09:20:49;2.53;;;2.30;;
20890;SDS011;10605;52.968;8.844;2023-06-22T09:23:15;5.20;;;2.28;;
20890;SDS011;10605;52.968;8.844;2023-06-22T09:25:40;2.97;;;2.67;;
20890;SDS011;10605;52.968;8.844;2023-06-22T09:28:06;2.50;;;2.30;;
20890;SDS011;10605;52.968;8.844;2023-06-22T09:30:32;2.50;;;2.30;;
20890;SDS011;10605;52.968;8.844;2023-06-22T09:32:57;6.32;;;2.78;;
20890;SDS011;10605;52.968;8.844;2023-06-22T09:35:23;5.10;;;2.60;;
20890;SDS011;10605;52.968;8.844;2023-06-22T09:37:48;2.30;;;2.15;;
20890;SDS011;10605;52.968;8.844;2023-06-22T09:40:14;5.30;;;2.75;;
20890;SDS011;10605;52.968;8.844;2023-06-22T09:42:42;2.45;;;2.22;;
20890;SDS011;10605;52.968;8.844;2023-06-22T09:45:08;2.33;;;1.95;;
20890;SDS011;10605;52.968;8.844;2023-06-22T09:47:34;3.47;;;2.30;;
20890;SDS011;10605;52.968;8.844;2023-06-22T09:49:59;3.72;;;2.53;;
20890;SDS011;10605;52.968;8.844;2023-06-22T09:52:25;4.53;;;2.22;;
20890;SDS011;10605;52.968;8.844;2023-06-22T09:54:51;6.43;;;2.47;;
20890;SDS011;10605;52.968;8.844;2023-06-22T09:57:17;3.42;;;2.78;;
20890;SDS011;10605;52.968;8.844;2023-06-22T09:59:43;4.10;;;2.78;;
20890;SDS011;10605;52.968;8.844;2023-06-22T10:02:09;5.53;;;2.70;;
20890;SDS011;10605;52.968;8.844;2023-06-22T10:04:34;2.95;;;2.75;;
20890;SDS011;10605;52.968;8.844;2023-06-22T10:07:01;3.17;;;2.97;;
20890;SDS011;10605;52.968;8.844;2023-06-22T10:09:27;2.80;;;2.60;;
20890;SDS011;10605;52.968;8.844;2023-06-22T10:11:53;2.85;;;2.65;;
20890;SDS011;10605;52.968;8.844;2023-06-22T10:14:18;3.40;;;2.90;;
20890;SDS011;10605;52.968;8.844;2023-06-22T10:16:45;3.53;;;3.22;;
20890;SDS011;10605;52.968;8.844;2023-06-22T10:19:10;5.45;;;3.22;;
20890;SDS011;10605;52.968;8.844;2023-06-22T10:21:36;2.80;;;2.60;;
20890;SDS011;10605;52.968;8.844;2023-06-22T10:24:02;3.25;;;3.05;;
20890;SDS011;10605;52.968;8.844;2023-06-22T10:26:34;3.15;;;2.95;;
20890;SDS011;10605;52.968;8.844;2023-06-22T10:29:01;3.10;;;2.85;;
20890;SDS011;10605;52.968;8.844;2023-06-22T10:31:28;3.92;;;3.13;;
20890;SDS011;10605;52.968;8.844;2023-06-22T10:33:54;3.50;;;3.10;;
20890;SDS011;10605;52.968;8.844;2023-06-22T10:36:21;3.20;;;3.00;;
20890;SDS011;10605;52.968;8.844;2023-06-22T10:38:47;3.00;;;2.80;;
20890;SDS011;10605;52.968;8.844;2023-06-22T10:41:13;5.40;;;3.42;;
20890;SDS011;10605;52.968;8.844;2023-06-22T10:43:39;5.20;;;3.13;;
20890;SDS011;10605;52.968;8.844;2023-06-22T10:46:06;3.55;;;3.35;;
20890;SDS011;10605;52.968;8.844;2023-06-22T10:48:31;3.85;;;3.55;;
20890;SDS011;10605;52.968;8.844;2023-06-22T10:50:57;3.47;;;3.28;;
20890;SDS011;10605;52.968;8.844;2023-06-22T10:53:23;3.88;;;3.58;;
20890;SDS011;10605;52.968;8.844;2023-06-22T10:55:48;3.80;;;3.50;;
20890;SDS011;10605;52.968;8.844;2023-06-22T10:58:14;3.50;;;3.20;;
20890;SDS011;10605;52.968;8.844;2023-06-22T11:00:40;3.53;;;3.33;;
20890;SDS011;10605;52.968;8.844;2023-06-22T11:03:06;3.53;;;3.33;;
20890;SDS011;10605;52.968;8.844;2023-06-22T11:05:31;6.60;;;3.70;;
20890;SDS011;10605;52.968;8.844;2023-06-22T11:07:57;3.50;;;3.30;;
20890;SDS011;10605;52.968;8.844;2023-06-22T11:10:23;6.20;;;3.33;;
20890;SDS011;10605;52.968;8.844;2023-06-22T11:12:49;3.42;;;3.13;;
20890;SDS011;10605;52.968;8.844;2023-06-22T11:15:15;4.97;;;3.63;;
20890;SDS011;10605;52.968;8.844;2023-06-22T11:17:40;4.00;;;3.63;;
20890;SDS011;10605;52.968;8.844;2023-06-22T11:20:06;3.13;;;2.92;;
20890;SDS011;10605;52.968;8.844;2023-06-22T11:22:36;4.22;;;2.90;;
20890;SDS011;10605;52.968;8.844;2023-06-22T11:25:02;5.45;;;2.45;;
20890;SDS011;10605;52.968;8.844;2023-06-22T11:27:29;3.55;;;3.03;;
20890;SDS011;10605;52.968;8.844;2023-06-22T11:29:55;3.55;;;3.35;;
20890;SDS011;10605;52.968;8.844;2023-06-22T11:32:20;3.03;;;2.72;;
20890;SDS011;10605;52.968;8.844;2023-06-22T11:34:46;3.15;;;2.75;;
20890;SDS011;10605;52.968;8.844;2023-06-22T11:37:12;4.63;;;3.28;;
20890;SDS011;10605;52.968;8.844;2023-06-22T11:39:37;2.90;;;2.70;;
20890;SDS011;10605;52.968;8.844;2023-06-22T11:42:03;3.03;;;2.83;;
20890;SDS011;10605;52.968;8.844;2023-06-22T11:44:30;2.78;;;2.58;;
20890;SDS011;10605;52.968;8.844;2023-06-22T11:46:55;3.42;;;3.17;;
20890;SDS011;10605;52.968;8.844;2023-06-22T11:49:21;3.05;;;2.85;;
20890;SDS011;10605;52.968;8.844;2023-06-22T11:51:47;4.97;;;2.80;;
20890;SDS011;10605;52.968;8.844;2023-06-22T11:54:12;4.15;;;2.83;;
20890;SDS011;10605;52.968;8.844;2023-06-22T11:56:38;3.60;;;3.40;;
20890;SDS011;10605;52.968;8.844;2023-06-22T11:59:04;7.25;;;4.32;;
20890;SDS011;10605;52.968;8.844;2023-06-22T12:01:30;3.40;;;3.10;;
20890;SDS011;10605;52.968;8.844;2023-06-22T12:03:58;3.65;;;3.28;;
20890;SDS011;10605;52.968;8.844;2023-06-22T12:06:23;3.38;;;3.17;;
20890;SDS011;10605;52.968;8.844;2023-06-22T12:08:49;3.58;;;3.00;;
20890;SDS011;10605;52.968;8.844;2023-06-22T12:11:18;3.45;;;3.13;;
20890;SDS011;10605;52.968;8.844;2023-06-22T12:13:43;4.32;;;3.10;;
20890;SDS011;10605;52.968;8.844;2023-06-22T12:16:09;4.32;;;3.38;;
20890;SDS011;10605;52.968;8.844;2023-06-22T12:18:35;3.55;;;3.30;;
20890;SDS011;10605;52.968;8.844;2023-06-22T12:21:00;6.50;;;3.42;;
20890;SDS011;10605;52.968;8.844;2023-06-22T12:23:26;4.18;;;3.42;;
20890;SDS011;10605;52.968;8.844;2023-06-22T12:25:52;3.88;;;3.53;;
20890;SDS011;10605;52.968;8.844;2023-06-22T12:28:17;3.83;;;3.42;;
20890;SDS011;10605;52.968;8.844;2023-06-22T12:30:43;3.40;;;3.20;;
20890;SDS011;10605;52.968;8.844;2023-06-22T12:33:09;3.60;;;3.30;;
20890;SDS011;10605;52.968;8.844;2023-06-22T12:35:35;3.60;;;3.35;;
20890;SDS011;10605;52.968;8.844;2023-06-22T12:38:00;5.85;;;3.80;;
20890;SDS011;10605;52.968;8.844;2023-06-22T12:40:26;4.03;;;3.42;;
20890;SDS011;10605;52.968;8.844;2023-06-22T12:42:52;4.07;;;3.65;;
20890;SDS011;10605;52.968;8.844;2023-06-22T12:45:18;3.63;;;2.95;;
20890;SDS011;10605;52.968;8.844;2023-06-22T12:47:45;4.55;;;3.60;;
20890;SDS011;10605;52.968;8.844;2023-06-22T12:50:10;3.33;;;3.13;;
20890;SDS011;10605;52.968;8.844;2023-06-22T12:52:36;3.72;;;3.50;;
20890;SDS011;10605;52.968;8.844;2023-06-22T12:55:06;4.20;;;3.90;;
20890;SDS011;10605;52.968;8.844;2023-06-22T12:57:32;4.43;;;3.55;;
20890;SDS011;10605;52.968;8.844;2023-06-22T12:59:58;4.28;;;3.97;;
20890;SDS011;10605;52.968;8.844;2023-06-22T13:02:25;4.25;;;3.85;;
20890;SDS011;10605;52.968;8.844;2023-06-22T13:04:51;4.72;;;4.10;;
20890;SDS011;10605;52.968;8.844;2023-06-22T13:07:17;4.05;;;3.75;;
20890;SDS011;10605;52.968;8.844;2023-06-22T13:09:42;4.72;;;3.95;;
20890;SDS011;10605;52.968;8.844;2023-06-22T13:12:10;4.65;;;3.90;;
20890;SDS011;10605;52.968;8.844;2023-06-22T13:14:36;4.45;;;4.05;;
20890;SDS011;10605;52.968;8.844;2023-06-22T13:17:01;4.00;;;3.67;;
20890;SDS011;10605;52.968;8.844;2023-06-22T13:19:27;3.88;;;3.58;;
20890;SDS011;10605;52.968;8.844;2023-06-22T13:21:57;4.38;;;4.18;;
20890;SDS011;10605;52.968;8.844;2023-06-22T13:24:23;4.07;;;3.72;;
20890;SDS011;10605;52.968;8.844;2023-06-22T13:26:49;4.57;;;4.28;;
20890;SDS011;10605;52.968;8.844;2023-06-22T13:29:14;5.82;;;3.90;;
20890;SDS011;10605;52.968;8.844;2023-06-22T13:31:40;4.20;;;4.00;;
20890;SDS011;10605;52.968;8.844;2023-06-22T13:34:06;4.60;;;4.22;;
20890;SDS011;10605;52.968;8.844;2023-06-22T13:36:32;4.10;;;3.80;;
20890;SDS011;10605;52.968;8.844;2023-06-22T13:38:57;4.60;;;4.32;;
20890;SDS011;10605;52.968;8.844;2023-06-22T13:41:23;5.20;;;4.70;;
20890;SDS011;10605;52.968;8.844;2023-06-22T13:43:49;5.20;;;4.65;;
20890;SDS011;10605;52.968;8.844;2023-06-22T13:46:15;4.75;;;4.40;;
20890;SDS011;10605;52.968;8.844;2023-06-22T13:48:40;6.80;;;4.80;;
20890;SDS011;10605;52.968;8.844;2023-06-22T13:51:06;4.90;;;4.50;;
20890;SDS011;10605;52.968;8.844;2023-06-22T13:53:32;5.15;;;4.80;;
20890;SDS011;10605;52.968;8.844;2023-06-22T13:55:57;5.57;;;5.18;;
20890;SDS011;10605;52.968;8.844;2023-06-22T13:58:23;5.63;;;5.10;;
20890;SDS011;10605;52.968;8.844;2023-06-22T14:00:49;5.13;;;4.72;;
20890;SDS011;10605;52.968;8.844;2023-06-22T14:03:14;5.57;;;5.28;;
20890;SDS011;10605;52.968;8.844;2023-06-22T14:05:43;7.88;;;5.68;;
20890;SDS011;10605;52.968;8.844;2023-06-22T14:08:08;6.25;;;5.65;;
20890;SDS011;10605;52.968;8.844;2023-06-22T14:10:34;6.07;;;5.30;;
20890;SDS011;10605;52.968;8.844;2023-06-22T14:13:00;5.72;;;5.22;;
20890;SDS011;10605;52.968;8.844;2023-06-22T14:15:26;9.23;;;5.40;;
20890;SDS011;10605;52.968;8.844;2023-06-22T14:17:51;5.68;;;5.00;;
20890;SDS011;10605;52.968;8.844;2023-06-22T14:20:17;5.70;;;5.40;;
20890;SDS011;10605;52.968;8.844;2023-06-22T14:22:43;5.97;;;5.50;;
20890;SDS011;10605;52.968;8.844;2023-06-22T14:25:09;6.22;;;5.57;;
20890;SDS011;10605;52.968;8.844;2023-06-22T14:27:34;6.15;;;5.63;;
20890;SDS011;10605;52.968;8.844;2023-06-22T14:30:00;5.82;;;5.30;;
20890;SDS011;10605;52.968;8.844;2023-06-22T14:32:27;7.07;;;6.03;;
20890;SDS011;10605;52.968;8.844;2023-06-22T14:34:54;7.82;;;5.68;;
20890;SDS011;10605;52.968;8.844;2023-06-22T14:37:20;5.70;;;5.20;;
20890;SDS011;10605;52.968;8.844;2023-06-22T14:39:46;6.28;;;5.72;;
20890;SDS011;10605;52.968;8.844;2023-06-22T14:42:11;6.68;;;6.07;;
20890;SDS011;10605;52.968;8.844;2023-06-22T14:44:37;7.35;;;5.82;;